sensor_id;sensor_type;location;lat;lon;timestamp;P1;durP1;ratioP1;P2;durP2;ratioP2
60610;SDS011;46439;51.164;13.572;2022-08-20T00:01:16;31.20;;;21.20;;
60610;SDS011;46439;51.164;13.572;2022-08-20T00:03:45;33.20;;;21.10;;
60610;SDS011;46439;51.164;13.572;2022-08-20T00:06:17;30.10;;;21.20;;
60610;SDS011;46439;51.164;13.572;2022-08-20T00:08:48;35.10;;;22.90;;
60610;SDS011;46439;51.164;13.572;2022-08-20T00:11:19;34.00;;;21.00;;
60610;SDS011;46439;51.164;13.572;2022-08-20T00:13:50;36.20;;;22.50;;
60610;SDS011;46439;51.164;13.572;2022-08-20T00:16:22;35.40;;;21.60;;
60610;SDS011;46439;51.164;13.572;2022-08-20T00:18:52;35.70;;;22.70;;
60610;SDS011;46439;51.164;13.572;2022-08-20T00:21:20;34.30;;;24.20;;
60610;SDS011;46439;51.164;13.572;2022-08-20T00:23:51;34.80;;;23.40;;
60610;SDS011;46439;51.164;13.572;2022-08-20T00:26:21;34.20;;;23.30;;
60610;SDS011;46439;51.164;13.572;2022-08-20T00:28:51;36.20;;;24.70;;
60610;SDS011;46439;51.164;13.572;2022-08-20T00:31:22;36.10;;;24.40;;
60610;SDS011;46439;51.164;13.572;2022-08-20T00:33:51;41.20;;;24.00;;
60610;SDS011;46439;51.164;13.572;2022-08-20T00:36:20;35.90;;;24.20;;
60610;SDS011;46439;51.164;13.572;2022-08-20T00:38:49;40.60;;;25.20;;
60610;SDS011;46439;51.164;13.572;2022-08-20T00:41:22;38.70;;;24.80;;
60610;SDS011;46439;51.164;13.572;2022-08-20T00:46:30;38.40;;;24.80;;
60610;SDS011;46439;51.164;13.572;2022-08-20T00:48:59;42.00;;;26.50;;
60610;SDS011;46439;51.164;13.572;2022-08-20T00:51:34;40.70;;;26.40;;
60610;SDS011;46439;51.164;13.572;2022-08-20T00:54:05;40.60;;;26.40;;
60610;SDS011;46439;51.164;13.572;2022-08-20T00:56:36;38.50;;;25.00;;
60610;SDS011;46439;51.164;13.572;2022-08-20T00:59:11;43.70;;;26.00;;
60610;SDS011;46439;51.164;13.572;2022-08-20T01:01:44;42.50;;;27.50;;
60610;SDS011;46439;51.164;13.572;2022-08-20T01:04:13;38.20;;;27.00;;
60610;SDS011;46439;51.164;13.572;2022-08-20T01:06:42;40.20;;;25.10;;
60610;SDS011;46439;51.164;13.572;2022-08-20T01:09:11;38.80;;;26.20;;
60610;SDS011;46439;51.164;13.572;2022-08-20T01:11:40;43.80;;;28.00;;
60610;SDS011;46439;51.164;13.572;2022-08-20T01:14:09;40.60;;;26.50;;
60610;SDS011;46439;51.164;13.572;2022-08-20T01:16:59;46.00;;;28.10;;
60610;SDS011;46439;51.164;13.572;2022-08-20T01:19:32;46.40;;;27.80;;
60610;SDS011;46439;51.164;13.572;2022-08-20T01:22:04;43.80;;;29.00;;
60610;SDS011;46439;51.164;13.572;2022-08-20T01:24:53;42.70;;;28.50;;
60610;SDS011;46439;51.164;13.572;2022-08-20T01:27:33;40.60;;;28.90;;
60610;SDS011;46439;51.164;13.572;2022-08-20T01:30:05;44.20;;;29.50;;
60610;SDS011;46439;51.164;13.572;2022-08-20T01:32:34;42.50;;;28.20;;
60610;SDS011;46439;51.164;13.572;2022-08-20T01:35:03;46.70;;;30.30;;
60610;SDS011;46439;51.164;13.572;2022-08-20T01:37:33;44.90;;;29.00;;
60610;SDS011;46439;51.164;13.572;2022-08-20T01:40:06;51.60;;;31.50;;
60610;SDS011;46439;51.164;13.572;2022-08-20T01:42:40;47.90;;;30.70;;
60610;SDS011;46439;51.164;13.572;2022-08-20T01:45:12;45.40;;;30.50;;
60610;SDS011;46439;51.164;13.572;2022-08-20T01:47:40;47.10;;;31.30;;
60610;SDS011;46439;51.164;13.572;2022-08-20T01:50:10;46.30;;;31.40;;
60610;SDS011;46439;51.164;13.572;2022-08-20T01:52:50;45.80;;;31.50;;
60610;SDS011;46439;51.164;13.572;2022-08-20T01:55:24;46.70;;;31.20;;
60610;SDS011;46439;51.164;13.572;2022-08-20T01:57:53;43.70;;;30.60;;
60610;SDS011;46439;51.164;13.572;2022-08-20T02:00:22;45.80;;;31.30;;
60610;SDS011;46439;51.164;13.572;2022-08-20T02:02:51;49.50;;;31.40;;
60610;SDS011;46439;51.164;13.572;2022-08-20T02:05:19;50.60;;;32.00;;
60610;SDS011;46439;51.164;13.572;2022-08-20T02:07:47;51.00;;;33.60;;
60610;SDS011;46439;51.164;13.572;2022-08-20T02:10:17;50.90;;;32.30;;
60610;SDS011;46439;51.164;13.572;2022-08-20T02:12:45;58.60;;;34.20;;
60610;SDS011;46439;51.164;13.572;2022-08-20T02:15:14;52.50;;;33.40;;
60610;SDS011;46439;51.164;13.572;2022-08-20T02:17:42;49.90;;;33.10;;
60610;SDS011;46439;51.164;13.572;2022-08-20T02:20:12;51.20;;;33.00;;
60610;SDS011;46439;51.164;13.572;2022-08-20T02:25:10;56.10;;;33.60;;
60610;SDS011;46439;51.164;13.572;2022-08-20T02:27:42;57.50;;;34.80;;
60610;SDS011;46439;51.164;13.572;2022-08-20T02:32:43;53.80;;;33.80;;
60610;SDS011;46439;51.164;13.572;2022-08-20T02:35:11;55.00;;;35.50;;
60610;SDS011;46439;51.164;13.572;2022-08-20T02:37:40;53.50;;;34.80;;
60610;SDS011;46439;51.164;13.572;2022-08-20T02:40:14;59.00;;;35.60;;
60610;SDS011;46439;51.164;13.572;2022-08-20T02:42:45;54.30;;;34.20;;
60610;SDS011;46439;51.164;13.572;2022-08-20T02:45:14;48.80;;;33.10;;
60610;SDS011;46439;51.164;13.572;2022-08-20T02:47:43;55.80;;;34.30;;
60610;SDS011;46439;51.164;13.572;2022-08-20T02:50:14;53.60;;;33.10;;
60610;SDS011;46439;51.164;13.572;2022-08-20T02:52:43;48.70;;;31.50;;
60610;SDS011;46439;51.164;13.572;2022-08-20T02:55:15;51.80;;;32.60;;
60610;SDS011;46439;51.164;13.572;2022-08-20T02:57:43;51.10;;;33.60;;
60610;SDS011;46439;51.164;13.572;2022-08-20T03:00:14;51.70;;;33.00;;
60610;SDS011;46439;51.164;13.572;2022-08-20T03:02:45;50.80;;;32.50;;
60610;SDS011;46439;51.164;13.572;2022-08-20T03:05:16;52.50;;;33.50;;
60610;SDS011;46439;51.164;13.572;2022-08-20T03:07:48;50.60;;;32.40;;
60610;SDS011;46439;51.164;13.572;2022-08-20T03:10:23;47.90;;;31.60;;
60610;SDS011;46439;51.164;13.572;2022-08-20T03:12:53;52.80;;;33.30;;
60610;SDS011;46439;51.164;13.572;2022-08-20T03:15:21;49.60;;;32.80;;
60610;SDS011;46439;51.164;13.572;2022-08-20T03:17:50;53.70;;;31.90;;
60610;SDS011;46439;51.164;13.572;2022-08-20T03:20:18;47.40;;;31.40;;
60610;SDS011;46439;51.164;13.572;2022-08-20T03:22:47;49.00;;;30.50;;
60610;SDS011;46439;51.164;13.572;2022-08-20T03:25:16;44.80;;;28.50;;
60610;SDS011;46439;51.164;13.572;2022-08-20T03:27:45;42.10;;;27.20;;
60610;SDS011;46439;51.164;13.572;2022-08-20T03:30:15;45.20;;;28.50;;
60610;SDS011;46439;51.164;13.572;2022-08-20T03:32:45;45.20;;;28.80;;
60610;SDS011;46439;51.164;13.572;2022-08-20T03:35:14;47.00;;;28.80;;
60610;SDS011;46439;51.164;13.572;2022-08-20T03:37:44;45.20;;;29.10;;
60610;SDS011;46439;51.164;13.572;2022-08-20T03:40:14;41.90;;;27.70;;
60610;SDS011;46439;51.164;13.572;2022-08-20T03:42:45;44.60;;;27.10;;
60610;SDS011;46439;51.164;13.572;2022-08-20T03:45:13;45.10;;;27.80;;
60610;SDS011;46439;51.164;13.572;2022-08-20T03:47:42;43.60;;;28.20;;
60610;SDS011;46439;51.164;13.572;2022-08-20T03:50:11;41.00;;;27.40;;
60610;SDS011;46439;51.164;13.572;2022-08-20T03:52:40;43.30;;;27.00;;
60610;SDS011;46439;51.164;13.572;2022-08-20T03:55:09;40.30;;;25.70;;
60610;SDS011;46439;51.164;13.572;2022-08-20T03:57:43;39.30;;;25.40;;
60610;SDS011;46439;51.164;13.572;2022-08-20T04:00:17;43.30;;;26.50;;
60610;SDS011;46439;51.164;13.572;2022-08-20T04:02:48;40.80;;;24.70;;
60610;SDS011;46439;51.164;13.572;2022-08-20T04:05:17;39.90;;;25.30;;
60610;SDS011;46439;51.164;13.572;2022-08-20T04:07:46;39.40;;;25.60;;
60610;SDS011;46439;51.164;13.572;2022-08-20T04:10:16;38.70;;;24.50;;
60610;SDS011;46439;51.164;13.572;2022-08-20T04:12:44;38.00;;;24.30;;
60610;SDS011;46439;51.164;13.572;2022-08-20T04:15:14;41.20;;;25.20;;
60610;SDS011;46439;51.164;13.572;2022-08-20T04:17:44;40.40;;;24.60;;
60610;SDS011;46439;51.164;13.572;2022-08-20T04:20:15;43.00;;;26.70;;
60610;SDS011;46439;51.164;13.572;2022-08-20T04:22:48;43.70;;;28.20;;
60610;SDS011;46439;51.164;13.572;2022-08-20T04:25:17;45.40;;;28.10;;
60610;SDS011;46439;51.164;13.572;2022-08-20T04:27:47;44.40;;;28.30;;
60610;SDS011;46439;51.164;13.572;2022-08-20T04:30:18;42.90;;;28.30;;
60610;SDS011;46439;51.164;13.572;2022-08-20T04:32:51;46.90;;;28.70;;
60610;SDS011;46439;51.164;13.572;2022-08-20T04:35:21;49.10;;;31.70;;
60610;SDS011;46439;51.164;13.572;2022-08-20T04:37:58;49.20;;;31.30;;
60610;SDS011;46439;51.164;13.572;2022-08-20T04:40:28;50.00;;;32.40;;
60610;SDS011;46439;51.164;13.572;2022-08-20T04:43:16;47.70;;;29.00;;
60610;SDS011;46439;51.164;13.572;2022-08-20T04:45:46;47.60;;;28.50;;
60610;SDS011;46439;51.164;13.572;2022-08-20T04:48:15;44.20;;;26.80;;
60610;SDS011;46439;51.164;13.572;2022-08-20T04:50:44;43.80;;;27.10;;
60610;SDS011;46439;51.164;13.572;2022-08-20T04:53:14;42.40;;;27.00;;
60610;SDS011;46439;51.164;13.572;2022-08-20T04:58:13;43.40;;;25.30;;
60610;SDS011;46439;51.164;13.572;2022-08-20T05:00:45;41.40;;;25.80;;
60610;SDS011;46439;51.164;13.572;2022-08-20T05:03:15;41.50;;;25.80;;
60610;SDS011;46439;51.164;13.572;2022-08-20T05:05:44;39.50;;;24.20;;
60610;SDS011;46439;51.164;13.572;2022-08-20T05:08:14;35.30;;;23.30;;
60610;SDS011;46439;51.164;13.572;2022-08-20T05:10:43;34.40;;;23.50;;
60610;SDS011;46439;51.164;13.572;2022-08-20T05:13:12;38.70;;;23.80;;
60610;SDS011;46439;51.164;13.572;2022-08-20T05:15:41;37.60;;;24.10;;
60610;SDS011;46439;51.164;13.572;2022-08-20T05:18:15;40.80;;;25.80;;
60610;SDS011;46439;51.164;13.572;2022-08-20T05:20:48;36.00;;;23.60;;
60610;SDS011;46439;51.164;13.572;2022-08-20T05:23:24;38.70;;;25.10;;
60610;SDS011;46439;51.164;13.572;2022-08-20T05:25:52;37.90;;;23.40;;
60610;SDS011;46439;51.164;13.572;2022-08-20T05:28:23;36.80;;;22.10;;
60610;SDS011;46439;51.164;13.572;2022-08-20T05:30:58;34.20;;;21.60;;
60610;SDS011;46439;51.164;13.572;2022-08-20T05:33:27;33.20;;;20.80;;
60610;SDS011;46439;51.164;13.572;2022-08-20T05:35:56;28.80;;;19.60;;
60610;SDS011;46439;51.164;13.572;2022-08-20T05:38:25;33.10;;;20.90;;
60610;SDS011;46439;51.164;13.572;2022-08-20T05:40:54;30.60;;;19.50;;
60610;SDS011;46439;51.164;13.572;2022-08-20T05:43:23;28.00;;;17.20;;
60610;SDS011;46439;51.164;13.572;2022-08-20T05:45:52;29.40;;;19.20;;
60610;SDS011;46439;51.164;13.572;2022-08-20T05:48:24;26.80;;;19.10;;
60610;SDS011;46439;51.164;13.572;2022-08-20T05:50:54;27.50;;;17.90;;
60610;SDS011;46439;51.164;13.572;2022-08-20T05:53:23;27.80;;;18.60;;
60610;SDS011;46439;51.164;13.572;2022-08-20T05:55:52;29.10;;;17.90;;
60610;SDS011;46439;51.164;13.572;2022-08-20T05:58:22;29.30;;;19.20;;
60610;SDS011;46439;51.164;13.572;2022-08-20T06:00:52;34.00;;;21.20;;
60610;SDS011;46439;51.164;13.572;2022-08-20T06:03:21;31.50;;;21.20;;
60610;SDS011;46439;51.164;13.572;2022-08-20T06:06:09;32.00;;;21.70;;
60610;SDS011;46439;51.164;13.572;2022-08-20T06:08:42;30.90;;;20.40;;
60610;SDS011;46439;51.164;13.572;2022-08-20T06:11:21;36.10;;;22.70;;
60610;SDS011;46439;51.164;13.572;2022-08-20T06:13:51;37.70;;;24.60;;
60610;SDS011;46439;51.164;13.572;2022-08-20T06:16:19;44.70;;;27.90;;
60610;SDS011;46439;51.164;13.572;2022-08-20T06:18:47;39.40;;;25.50;;
60610;SDS011;46439;51.164;13.572;2022-08-20T06:21:16;41.60;;;27.70;;
60610;SDS011;46439;51.164;13.572;2022-08-20T06:23:44;42.60;;;26.40;;
60610;SDS011;46439;51.164;13.572;2022-08-20T06:26:15;45.40;;;28.60;;
60610;SDS011;46439;51.164;13.572;2022-08-20T06:28:44;43.40;;;27.30;;
60610;SDS011;46439;51.164;13.572;2022-08-20T06:31:13;39.20;;;25.30;;
60610;SDS011;46439;51.164;13.572;2022-08-20T06:33:41;45.20;;;27.80;;
60610;SDS011;46439;51.164;13.572;2022-08-20T06:36:10;48.10;;;29.90;;
60610;SDS011;46439;51.164;13.572;2022-08-20T06:38:38;45.70;;;28.80;;
60610;SDS011;46439;51.164;13.572;2022-08-20T06:41:07;47.30;;;29.40;;
60610;SDS011;46439;51.164;13.572;2022-08-20T06:43:36;46.80;;;29.80;;
60610;SDS011;46439;51.164;13.572;2022-08-20T06:46:04;50.20;;;29.70;;
60610;SDS011;46439;51.164;13.572;2022-08-20T06:48:33;48.20;;;30.60;;
60610;SDS011;46439;51.164;13.572;2022-08-20T06:51:02;49.90;;;32.30;;
60610;SDS011;46439;51.164;13.572;2022-08-20T06:53:32;49.40;;;29.30;;
60610;SDS011;46439;51.164;13.572;2022-08-20T06:56:00;49.40;;;30.70;;
60610;SDS011;46439;51.164;13.572;2022-08-20T06:58:29;52.60;;;31.00;;
60610;SDS011;46439;51.164;13.572;2022-08-20T07:01:00;42.40;;;26.20;;
60610;SDS011;46439;51.164;13.572;2022-08-20T07:03:29;54.50;;;31.80;;
60610;SDS011;46439;51.164;13.572;2022-08-20T07:05:57;50.20;;;30.40;;
60610;SDS011;46439;51.164;13.572;2022-08-20T07:08:25;48.20;;;31.00;;
60610;SDS011;46439;51.164;13.572;2022-08-20T07:10:54;49.80;;;31.30;;
60610;SDS011;46439;51.164;13.572;2022-08-20T07:13:23;50.90;;;31.50;;
60610;SDS011;46439;51.164;13.572;2022-08-20T07:15:51;53.40;;;31.20;;
60610;SDS011;46439;51.164;13.572;2022-08-20T07:18:20;44.80;;;29.50;;
60610;SDS011;46439;51.164;13.572;2022-08-20T07:20:50;48.20;;;30.30;;
60610;SDS011;46439;51.164;13.572;2022-08-20T07:23:20;49.70;;;31.80;;
60610;SDS011;46439;51.164;13.572;2022-08-20T07:25:49;54.30;;;34.30;;
60610;SDS011;46439;51.164;13.572;2022-08-20T07:28:19;59.40;;;34.50;;
60610;SDS011;46439;51.164;13.572;2022-08-20T07:30:49;56.10;;;35.30;;
60610;SDS011;46439;51.164;13.572;2022-08-20T07:33:37;56.50;;;33.90;;
60610;SDS011;46439;51.164;13.572;2022-08-20T07:36:07;58.20;;;36.00;;
60610;SDS011;46439;51.164;13.572;2022-08-20T07:38:36;63.00;;;36.40;;
60610;SDS011;46439;51.164;13.572;2022-08-20T07:41:05;62.10;;;37.50;;
60610;SDS011;46439;51.164;13.572;2022-08-20T07:43:35;59.10;;;36.30;;
60610;SDS011;46439;51.164;13.572;2022-08-20T07:46:05;58.60;;;36.80;;
60610;SDS011;46439;51.164;13.572;2022-08-20T07:48:35;60.40;;;36.60;;
60610;SDS011;46439;51.164;13.572;2022-08-20T07:51:05;58.60;;;36.10;;
60610;SDS011;46439;51.164;13.572;2022-08-20T07:53:37;54.30;;;35.00;;
60610;SDS011;46439;51.164;13.572;2022-08-20T07:56:07;57.90;;;34.20;;
60610;SDS011;46439;51.164;13.572;2022-08-20T07:58:38;56.10;;;33.30;;
60610;SDS011;46439;51.164;13.572;2022-08-20T08:01:15;59.10;;;35.60;;
60610;SDS011;46439;51.164;13.572;2022-08-20T08:03:45;60.10;;;35.60;;
60610;SDS011;46439;51.164;13.572;2022-08-20T08:06:14;60.50;;;34.80;;
60610;SDS011;46439;51.164;13.572;2022-08-20T08:08:44;52.10;;;33.30;;
60610;SDS011;46439;51.164;13.572;2022-08-20T08:11:13;59.20;;;34.70;;
60610;SDS011;46439;51.164;13.572;2022-08-20T08:13:44;58.90;;;35.90;;
60610;SDS011;46439;51.164;13.572;2022-08-20T08:16:14;54.80;;;34.90;;
60610;SDS011;46439;51.164;13.572;2022-08-20T08:18:45;54.90;;;33.20;;
60610;SDS011;46439;51.164;13.572;2022-08-20T08:21:15;61.40;;;35.30;;
60610;SDS011;46439;51.164;13.572;2022-08-20T08:23:46;58.80;;;35.30;;
60610;SDS011;46439;51.164;13.572;2022-08-20T08:26:15;58.20;;;34.60;;
60610;SDS011;46439;51.164;13.572;2022-08-20T08:28:44;55.40;;;34.10;;
60610;SDS011;46439;51.164;13.572;2022-08-20T08:31:13;57.60;;;34.60;;
60610;SDS011;46439;51.164;13.572;2022-08-20T08:33:43;51.70;;;33.60;;
60610;SDS011;46439;51.164;13.572;2022-08-20T08:36:12;60.00;;;35.40;;
60610;SDS011;46439;51.164;13.572;2022-08-20T08:38:42;55.40;;;34.20;;
60610;SDS011;46439;51.164;13.572;2022-08-20T08:41:13;52.30;;;32.80;;
60610;SDS011;46439;51.164;13.572;2022-08-20T08:43:45;50.80;;;34.00;;
60610;SDS011;46439;51.164;13.572;2022-08-20T08:46:16;51.00;;;33.90;;
60610;SDS011;46439;51.164;13.572;2022-08-20T08:48:48;54.90;;;34.90;;
60610;SDS011;46439;51.164;13.572;2022-08-20T08:51:24;54.50;;;34.30;;
60610;SDS011;46439;51.164;13.572;2022-08-20T08:53:58;56.70;;;35.30;;
60610;SDS011;46439;51.164;13.572;2022-08-20T08:56:28;52.20;;;32.10;;
60610;SDS011;46439;51.164;13.572;2022-08-20T08:58:59;55.60;;;33.70;;
60610;SDS011;46439;51.164;13.572;2022-08-20T09:01:30;55.20;;;33.40;;
60610;SDS011;46439;51.164;13.572;2022-08-20T09:04:11;52.20;;;32.30;;
60610;SDS011;46439;51.164;13.572;2022-08-20T09:06:40;60.00;;;33.70;;
60610;SDS011;46439;51.164;13.572;2022-08-20T09:09:15;56.30;;;32.90;;
60610;SDS011;46439;51.164;13.572;2022-08-20T09:11:48;53.50;;;32.80;;
60610;SDS011;46439;51.164;13.572;2022-08-20T09:14:21;51.00;;;31.60;;
60610;SDS011;46439;51.164;13.572;2022-08-20T09:16:50;51.80;;;32.40;;
60610;SDS011;46439;51.164;13.572;2022-08-20T09:19:18;48.30;;;32.00;;
60610;SDS011;46439;51.164;13.572;2022-08-20T09:21:47;50.40;;;31.50;;
60610;SDS011;46439;51.164;13.572;2022-08-20T09:24:15;56.60;;;31.70;;
60610;SDS011;46439;51.164;13.572;2022-08-20T09:26:44;49.90;;;32.20;;
60610;SDS011;46439;51.164;13.572;2022-08-20T09:29:12;45.10;;;29.20;;
60610;SDS011;46439;51.164;13.572;2022-08-20T09:31:41;54.20;;;31.20;;
60610;SDS011;46439;51.164;13.572;2022-08-20T09:34:09;44.60;;;30.50;;
60610;SDS011;46439;51.164;13.572;2022-08-20T09:36:38;47.60;;;31.70;;
60610;SDS011;46439;51.164;13.572;2022-08-20T09:39:06;47.00;;;31.80;;
60610;SDS011;46439;51.164;13.572;2022-08-20T09:41:35;48.60;;;30.50;;
60610;SDS011;46439;51.164;13.572;2022-08-20T09:44:04;46.20;;;31.40;;
60610;SDS011;46439;51.164;13.572;2022-08-20T09:46:32;47.30;;;30.70;;
60610;SDS011;46439;51.164;13.572;2022-08-20T09:49:01;48.80;;;33.00;;
60610;SDS011;46439;51.164;13.572;2022-08-20T09:51:30;44.70;;;30.20;;
60610;SDS011;46439;51.164;13.572;2022-08-20T09:53:58;46.10;;;28.60;;
60610;SDS011;46439;51.164;13.572;2022-08-20T09:56:27;45.00;;;30.60;;
60610;SDS011;46439;51.164;13.572;2022-08-20T09:58:59;46.60;;;30.60;;
60610;SDS011;46439;51.164;13.572;2022-08-20T10:01:27;44.50;;;29.20;;
60610;SDS011;46439;51.164;13.572;2022-08-20T10:03:56;44.00;;;28.50;;
60610;SDS011;46439;51.164;13.572;2022-08-20T10:06:24;47.00;;;30.70;;
60610;SDS011;46439;51.164;13.572;2022-08-20T10:08:53;40.60;;;26.50;;
60610;SDS011;46439;51.164;13.572;2022-08-20T10:11:21;38.70;;;26.30;;
60610;SDS011;46439;51.164;13.572;2022-08-20T10:13:50;46.80;;;28.80;;
60610;SDS011;46439;51.164;13.572;2022-08-20T10:16:18;40.50;;;28.30;;
60610;SDS011;46439;51.164;13.572;2022-08-20T10:18:46;40.10;;;28.40;;
60610;SDS011;46439;51.164;13.572;2022-08-20T10:21:15;42.10;;;28.40;;
60610;SDS011;46439;51.164;13.572;2022-08-20T10:23:43;44.70;;;27.50;;
60610;SDS011;46439;51.164;13.572;2022-08-20T10:26:12;39.80;;;27.10;;
60610;SDS011;46439;51.164;13.572;2022-08-20T10:28:41;40.70;;;26.80;;
60610;SDS011;46439;51.164;13.572;2022-08-20T10:31:10;40.10;;;26.30;;
60610;SDS011;46439;51.164;13.572;2022-08-20T10:33:39;37.40;;;26.20;;
60610;SDS011;46439;51.164;13.572;2022-08-20T10:36:09;43.00;;;27.60;;
60610;SDS011;46439;51.164;13.572;2022-08-20T10:38:41;40.40;;;27.70;;
60610;SDS011;46439;51.164;13.572;2022-08-20T10:41:10;41.20;;;27.50;;
60610;SDS011;46439;51.164;13.572;2022-08-20T10:43:38;42.00;;;26.20;;
60610;SDS011;46439;51.164;13.572;2022-08-20T10:46:07;36.70;;;26.20;;
60610;SDS011;46439;51.164;13.572;2022-08-20T10:48:35;37.80;;;27.00;;
60610;SDS011;46439;51.164;13.572;2022-08-20T10:51:06;42.80;;;28.70;;
60610;SDS011;46439;51.164;13.572;2022-08-20T10:53:40;39.50;;;28.90;;
60610;SDS011;46439;51.164;13.572;2022-08-20T10:56:08;45.10;;;29.50;;
60610;SDS011;46439;51.164;13.572;2022-08-20T10:58:36;45.40;;;28.90;;
60610;SDS011;46439;51.164;13.572;2022-08-20T11:01:05;41.00;;;29.40;;
60610;SDS011;46439;51.164;13.572;2022-08-20T11:03:34;39.90;;;28.20;;
60610;SDS011;46439;51.164;13.572;2022-08-20T11:06:02;41.70;;;29.20;;
60610;SDS011;46439;51.164;13.572;2022-08-20T11:08:31;44.70;;;29.20;;
60610;SDS011;46439;51.164;13.572;2022-08-20T11:11:00;43.00;;;29.10;;
60610;SDS011;46439;51.164;13.572;2022-08-20T11:13:32;46.20;;;30.80;;
60610;SDS011;46439;51.164;13.572;2022-08-20T11:16:04;48.10;;;29.50;;
60610;SDS011;46439;51.164;13.572;2022-08-20T11:18:32;43.60;;;29.20;;
60610;SDS011;46439;51.164;13.572;2022-08-20T11:21:01;43.90;;;29.00;;
60610;SDS011;46439;51.164;13.572;2022-08-20T11:23:29;45.40;;;29.70;;
60610;SDS011;46439;51.164;13.572;2022-08-20T11:25:58;44.50;;;30.60;;
60610;SDS011;46439;51.164;13.572;2022-08-20T11:28:26;46.10;;;32.40;;
60610;SDS011;46439;51.164;13.572;2022-08-20T11:30:56;47.10;;;31.80;;
60610;SDS011;46439;51.164;13.572;2022-08-20T11:33:25;46.70;;;31.70;;
60610;SDS011;46439;51.164;13.572;2022-08-20T11:35:54;47.50;;;29.80;;
60610;SDS011;46439;51.164;13.572;2022-08-20T11:38:22;45.30;;;29.60;;
60610;SDS011;46439;51.164;13.572;2022-08-20T11:40:51;48.10;;;29.70;;
60610;SDS011;46439;51.164;13.572;2022-08-20T11:43:19;41.60;;;28.70;;
60610;SDS011;46439;51.164;13.572;2022-08-20T11:45:48;43.30;;;27.90;;
60610;SDS011;46439;51.164;13.572;2022-08-20T11:48:19;42.40;;;28.10;;
60610;SDS011;46439;51.164;13.572;2022-08-20T11:50:49;42.90;;;29.60;;
60610;SDS011;46439;51.164;13.572;2022-08-20T11:53:18;40.90;;;28.70;;
60610;SDS011;46439;51.164;13.572;2022-08-20T11:55:46;38.20;;;27.20;;
60610;SDS011;46439;51.164;13.572;2022-08-20T11:58:15;39.00;;;28.30;;
60610;SDS011;46439;51.164;13.572;2022-08-20T12:00:44;40.80;;;28.00;;
60610;SDS011;46439;51.164;13.572;2022-08-20T12:03:12;37.80;;;27.80;;
60610;SDS011;46439;51.164;13.572;2022-08-20T12:05:41;46.20;;;29.60;;
60610;SDS011;46439;51.164;13.572;2022-08-20T12:08:13;42.90;;;28.20;;
60610;SDS011;46439;51.164;13.572;2022-08-20T12:10:43;38.90;;;27.80;;
60610;SDS011;46439;51.164;13.572;2022-08-20T12:13:11;42.60;;;28.70;;
60610;SDS011;46439;51.164;13.572;2022-08-20T12:15:39;41.20;;;29.30;;
60610;SDS011;46439;51.164;13.572;2022-08-20T12:18:09;41.40;;;29.40;;
60610;SDS011;46439;51.164;13.572;2022-08-20T12:20:37;43.10;;;29.40;;
60610;SDS011;46439;51.164;13.572;2022-08-20T12:23:06;42.80;;;30.40;;
60610;SDS011;46439;51.164;13.572;2022-08-20T12:25:34;49.00;;;30.90;;
60610;SDS011;46439;51.164;13.572;2022-08-20T12:28:03;47.20;;;29.90;;
60610;SDS011;46439;51.164;13.572;2022-08-20T12:30:32;42.60;;;29.30;;
60610;SDS011;46439;51.164;13.572;2022-08-20T12:33:00;43.60;;;31.40;;
60610;SDS011;46439;51.164;13.572;2022-08-20T12:35:29;45.40;;;30.00;;
60610;SDS011;46439;51.164;13.572;2022-08-20T12:37:57;39.90;;;29.40;;
60610;SDS011;46439;51.164;13.572;2022-08-20T12:40:30;43.30;;;32.30;;
60610;SDS011;46439;51.164;13.572;2022-08-20T12:42:59;44.20;;;30.80;;
60610;SDS011;46439;51.164;13.572;2022-08-20T12:45:28;42.70;;;30.90;;
60610;SDS011;46439;51.164;13.572;2022-08-20T12:48:00;46.80;;;30.90;;
60610;SDS011;46439;51.164;13.572;2022-08-20T12:50:31;30.10;;;20.10;;
60610;SDS011;46439;51.164;13.572;2022-08-20T12:53:00;35.30;;;22.80;;
60610;SDS011;46439;51.164;13.572;2022-08-20T12:55:29;34.60;;;24.50;;
60610;SDS011;46439;51.164;13.572;2022-08-20T12:57:59;42.50;;;29.50;;
60610;SDS011;46439;51.164;13.572;2022-08-20T13:00:30;41.40;;;30.10;;
60610;SDS011;46439;51.164;13.572;2022-08-20T13:03:00;42.50;;;30.50;;
60610;SDS011;46439;51.164;13.572;2022-08-20T13:05:30;44.10;;;31.40;;
60610;SDS011;46439;51.164;13.572;2022-08-20T13:08:00;44.20;;;31.00;;
60610;SDS011;46439;51.164;13.572;2022-08-20T13:10:33;42.40;;;30.90;;
60610;SDS011;46439;51.164;13.572;2022-08-20T13:13:09;43.50;;;30.20;;
60610;SDS011;46439;51.164;13.572;2022-08-20T13:15:39;45.60;;;30.70;;
60610;SDS011;46439;51.164;13.572;2022-08-20T13:18:07;44.20;;;31.30;;
60610;SDS011;46439;51.164;13.572;2022-08-20T13:20:36;45.60;;;31.20;;
60610;SDS011;46439;51.164;13.572;2022-08-20T13:23:04;40.80;;;30.10;;
60610;SDS011;46439;51.164;13.572;2022-08-20T13:25:33;44.00;;;31.40;;
60610;SDS011;46439;51.164;13.572;2022-08-20T13:28:02;43.80;;;31.60;;
60610;SDS011;46439;51.164;13.572;2022-08-20T13:30:31;48.40;;;32.00;;
60610;SDS011;46439;51.164;13.572;2022-08-20T13:33:02;46.60;;;30.80;;
60610;SDS011;46439;51.164;13.572;2022-08-20T13:35:31;42.80;;;31.10;;
60610;SDS011;46439;51.164;13.572;2022-08-20T13:37:59;46.50;;;32.10;;
60610;SDS011;46439;51.164;13.572;2022-08-20T13:40:28;40.60;;;29.90;;
60610;SDS011;46439;51.164;13.572;2022-08-20T13:43:01;44.40;;;31.60;;
60610;SDS011;46439;51.164;13.572;2022-08-20T13:45:29;44.00;;;31.70;;
60610;SDS011;46439;51.164;13.572;2022-08-20T13:47:58;40.90;;;30.00;;
60610;SDS011;46439;51.164;13.572;2022-08-20T13:50:26;45.00;;;31.30;;
60610;SDS011;46439;51.164;13.572;2022-08-20T13:52:55;43.60;;;31.10;;
60610;SDS011;46439;51.164;13.572;2022-08-20T13:55:27;42.40;;;31.10;;
60610;SDS011;46439;51.164;13.572;2022-08-20T13:57:56;44.90;;;31.00;;
60610;SDS011;46439;51.164;13.572;2022-08-20T14:00:30;42.80;;;30.20;;
60610;SDS011;46439;51.164;13.572;2022-08-20T14:03:00;45.70;;;31.70;;
60610;SDS011;46439;51.164;13.572;2022-08-20T14:05:30;52.30;;;32.30;;
60610;SDS011;46439;51.164;13.572;2022-08-20T14:08:04;39.70;;;29.70;;
60610;SDS011;46439;51.164;13.572;2022-08-20T14:10:35;40.80;;;28.90;;
60610;SDS011;46439;51.164;13.572;2022-08-20T14:13:05;40.90;;;28.40;;
60610;SDS011;46439;51.164;13.572;2022-08-20T14:15:35;45.00;;;30.70;;
60610;SDS011;46439;51.164;13.572;2022-08-20T14:18:03;40.10;;;29.60;;
60610;SDS011;46439;51.164;13.572;2022-08-20T14:20:33;40.90;;;30.30;;
60610;SDS011;46439;51.164;13.572;2022-08-20T14:23:12;40.30;;;29.90;;
60610;SDS011;46439;51.164;13.572;2022-08-20T14:25:41;46.30;;;30.00;;
60610;SDS011;46439;51.164;13.572;2022-08-20T14:28:16;43.30;;;29.40;;
60610;SDS011;46439;51.164;13.572;2022-08-20T14:30:47;43.10;;;29.80;;
60610;SDS011;46439;51.164;13.572;2022-08-20T14:33:16;40.40;;;29.10;;
60610;SDS011;46439;51.164;13.572;2022-08-20T14:35:44;45.50;;;30.00;;